Time;durP1;ratioP1;P1;durP2;ratioP2;P2;SDS_P1;SDS_P2;PMS_P1;PMS_P2;Temp;Humidity;BMP_temperature;BMP_pressure;BME280_temperature;BME280_humidity;BME280_pressure;Samples;Min_cycle;Max_cycle;Signal;HPM_P1;HPM_P2
2023/09/05 00:00:03;;;;;;;;;;;20.10;74.30;;;;;;5114578;28;20006;-70
2023/09/05 00:02:29;;;;;;;;;;;20.00;74.30;;;;;;5096376;28;19919;-71
2023/09/05 00:04:55;;;;;;;;;;;20.00;74.30;;;;;;5096463;28;19920;-70
2023/09/05 00:07:21;;;;;;;;;;;20.00;74.30;;;;;;5130561;27;19919;-71
2023/09/05 00:09:46;;;;;;;;;;;20.00;74.30;;;;;;5114341;28;19955;-70
2023/09/05 00:12:12;;;;;;;;;;;20.00;74.30;;;;;;5096270;28;19966;-73
2023/09/05 00:14:37;;;;;;;;;;;20.00;74.30;;;;;;5094896;28;20022;-70
2023/09/05 00:17:03;;;;;;;;;;;20.00;74.30;;;;;;5130054;27;19955;-71
2023/09/05 00:19:28;;;;;;;;;;;20.00;74.30;;;;;;5095938;28;19920;-71
2023/09/05 00:21:54;;;;;;;;;;;20.00;74.30;;;;;;5095823;28;19924;-70
2023/09/05 00:27:11;;;;;;;;;;;20.00;74.30;;;;;;5110286;27;19934;-69
2023/09/05 00:29:38;;;;;;;;;;;19.90;74.20;;;;;;5109272;28;20257;-69
2023/09/05 00:32:03;;;;;;;;;;;20.00;74.30;;;;;;5108903;28;19969;-69
2023/09/05 00:34:30;;;;;;;;;;;20.00;74.30;;;;;;5108939;28;19924;-69
2023/09/05 00:36:56;;;;;;;;;;;19.90;74.20;;;;;;5109122;28;19926;-69
2023/09/05 00:39:21;;;;;;;;;;;20.00;74.30;;;;;;5108983;28;20439;-73
2023/09/05 00:41:47;;;;;;;;;;;19.90;74.30;;;;;;5108764;28;20310;-69
2023/09/05 00:44:14;;;;;;;;;;;19.90;74.20;;;;;;5109041;28;19999;-69
2023/09/05 00:46:42;;;;;;;;;;;20.00;74.30;;;;;;5108647;28;20352;-69
2023/09/05 00:49:08;;;;;;;;;;;19.90;74.20;;;;;;5108817;28;19927;-70
2023/09/05 00:51:34;;;;;;;;;;;19.90;74.20;;;;;;5108562;28;19924;-69
2023/09/05 00:54:01;;;;;;;;;;;20.00;74.30;;;;;;5108572;28;19924;-69
2023/09/05 00:56:26;;;;;;;;;;;19.90;74.20;;;;;;5109723;28;20391;-69
2023/09/05 00:58:52;;;;;;;;;;;19.90;74.20;;;;;;5108485;28;19942;-69
2023/09/05 01:01:17;;;;;;;;;;;19.90;74.20;;;;;;5108557;28;20010;-69
2023/09/05 01:03:43;;;;;;;;;;;19.90;74.20;;;;;;5108165;28;19919;-73
2023/09/05 01:06:10;;;;;;;;;;;19.90;74.20;;;;;;5108327;28;20294;-69
2023/09/05 01:08:46;;;;;;;;;;;19.90;74.20;;;;;;5108414;28;19927;-69
2023/09/05 01:11:12;;;;;;;;;;;19.90;74.20;;;;;;5108142;28;19924;-69
2023/09/05 01:13:38;;;;;;;;;;;19.90;74.20;;;;;;5108470;28;19987;-69
2023/09/05 01:16:04;;;;;;;;;;;19.90;75.00;;;;;;5108135;28;19924;-70
2023/09/05 01:18:33;;;;;;;;;;;19.90;74.20;;;;;;5107867;28;19920;-69
2023/09/05 01:21:06;;;;;;;;;;;19.80;74.20;;;;;;5107968;28;19924;-69
2023/09/05 01:23:35;;;;;;;;;;;19.80;74.20;;;;;;5108109;28;20006;-69
2023/09/05 01:26:00;;;;;;;;;;;19.80;74.20;;;;;;5120376;28;19924;-69
2023/09/05 01:28:27;;;;;;;;;;;19.80;74.20;;;;;;5111404;28;19942;-69
2023/09/05 01:30:53;;;;;;;;;;;19.80;74.20;;;;;;5129550;28;19923;-69
2023/09/05 01:33:18;;;;;;;;;;;19.80;74.20;;;;;;5111391;28;19933;-73
2023/09/05 01:35:44;;;;;;;;;;;19.80;74.20;;;;;;5111073;28;19920;-69
2023/09/05 01:38:10;;;;;;;;;;;19.90;74.30;;;;;;5099338;28;20064;-69
2023/09/05 01:40:36;;;;;;;;;;;19.80;74.30;;;;;;5097309;28;20378;-69
2023/09/05 01:43:01;;;;;;;;;;;19.80;74.20;;;;;;5115782;28;19920;-69
2023/09/05 01:45:26;;;;;;;;;;;19.80;74.20;;;;;;5097233;28;20370;-69
2023/09/05 01:47:52;;;;;;;;;;;19.80;74.20;;;;;;5097527;28;19931;-69
2023/09/05 01:50:18;;;;;;;;;;;19.80;74.20;;;;;;5131682;27;19963;-70
2023/09/05 01:52:44;;;;;;;;;;;19.70;74.20;;;;;;5080363;28;20011;-69
2023/09/05 01:55:09;;;;;;;;;;;19.80;74.20;;;;;;5131259;27;20014;-69
2023/09/05 01:57:34;;;;;;;;;;;19.80;74.30;;;;;;5097345;28;20366;-69
2023/09/05 02:00:00;;;;;;;;;;;19.80;74.20;;;;;;5115327;28;19973;-69
2023/09/05 02:02:25;;;;;;;;;;;19.70;74.20;;;;;;5096887;28;19919;-69
2023/09/05 02:04:51;;;;;;;;;;;19.80;74.30;;;;;;5115335;28;19959;-69
2023/09/05 02:07:18;;;;;;;;;;;19.70;74.20;;;;;;5115233;28;19920;-69
2023/09/05 02:09:43;;;;;;;;;;;19.70;74.20;;;;;;5097081;28;20333;-69
2023/09/05 02:12:09;;;;;;;;;;;19.80;74.30;;;;;;5115093;28;19923;-69
2023/09/05 02:14:36;;;;;;;;;;;19.70;74.30;;;;;;5097012;28;19920;-69
2023/09/05 02:17:02;;;;;;;;;;;19.70;74.20;;;;;;5097006;28;19920;-70
2023/09/05 02:19:28;;;;;;;;;;;19.70;74.20;;;;;;5096731;28;19920;-69
2023/09/05 02:21:54;;;;;;;;;;;19.70;74.30;;;;;;5096577;28;19920;-69
2023/09/05 02:24:20;;;;;;;;;;;19.70;74.30;;;;;;5096585;28;20003;-74
2023/09/05 02:26:45;;;;;;;;;;;19.70;74.30;;;;;;5114497;28;20038;-69
2023/09/05 02:29:11;;;;;;;;;;;19.70;74.30;;;;;;5114915;28;19920;-69
2023/09/05 02:31:36;;;;;;;;;;;19.70;74.30;;;;;;5096455;28;19920;-70
2023/09/05 02:34:02;;;;;;;;;;;19.70;74.30;;;;;;5114558;28;19927;-69
2023/09/05 02:36:30;;;;;;;;;;;19.70;74.30;;;;;;5096602;28;19962;-69
2023/09/05 02:38:59;;;;;;;;;;;19.70;74.30;;;;;;5114633;28;20006;-69
2023/09/05 02:41:24;;;;;;;;;;;19.70;74.30;;;;;;5096173;28;20045;-69
2023/09/05 02:43:50;;;;;;;;;;;19.70;74.30;;;;;;5096522;28;19962;-69
2023/09/05 02:46:15;;;;;;;;;;;19.70;74.30;;;;;;5114247;28;19930;-69
2023/09/05 02:48:41;;;;;;;;;;;19.70;74.30;;;;;;5113379;28;20298;-72
2023/09/05 02:51:08;;;;;;;;;;;19.70;74.30;;;;;;5096293;28;20329;-69
2023/09/05 02:53:34;;;;;;;;;;;19.60;74.20;;;;;;5096043;28;19920;-69
2023/09/05 02:56:00;;;;;;;;;;;19.60;74.20;;;;;;5114443;28;19931;-69
2023/09/05 02:58:28;;;;;;;;;;;19.60;74.20;;;;;;5096001;28;20378;-69
2023/09/05 03:01:01;;;;;;;;;;;19.60;74.20;;;;;;5114332;28;19989;-69
2023/09/05 03:03:27;;;;;;;;;;;19.70;74.20;;;;;;5096065;28;20402;-69
2023/09/05 03:05:53;;;;;;;;;;;19.60;74.10;;;;;;5095806;28;19967;-69
2023/09/05 03:08:18;;;;;;;;;;;19.60;74.10;;;;;;5129726;27;20121;-69
2023/09/05 03:10:46;;;;;;;;;;;19.60;74.10;;;;;;5096069;28;19920;-69
2023/09/05 03:13:12;;;;;;;;;;;19.60;74.10;;;;;;5095959;28;19919;-69
2023/09/05 03:15:37;;;;;;;;;;;19.60;74.20;;;;;;5129769;27;20385;-69
2023/09/05 03:18:03;;;;;;;;;;;19.60;74.10;;;;;;5129547;27;19919;-69
2023/09/05 03:20:29;;;;;;;;;;;19.60;74.10;;;;;;5095814;28;20010;-69
2023/09/05 03:22:54;;;;;;;;;;;19.60;74.10;;;;;;5095651;28;19973;-72
2023/09/05 03:25:20;;;;;;;;;;;19.60;74.10;;;;;;5129455;27;19968;-70
2023/09/05 03:27:45;;;;;;;;;;;19.60;74.10;;;;;;5113575;28;19920;-69
2023/09/05 03:30:11;;;;;;;;;;;19.50;74.10;;;;;;5078462;28;19920;-69
2023/09/05 03:32:37;;;;;;;;;;;19.50;74.10;;;;;;5129630;27;19920;-69
2023/09/05 03:35:03;;;;;;;;;;;19.60;74.20;;;;;;5095421;28;20306;-69
2023/09/05 03:37:29;;;;;;;;;;;19.50;74.10;;;;;;5113722;28;19924;-69
2023/09/05 03:39:54;;;;;;;;;;;19.50;74.10;;;;;;5113572;28;19919;-69
2023/09/05 03:42:20;;;;;;;;;;;19.50;74.10;;;;;;5095366;28;20279;-69
2023/09/05 03:44:45;;;;;;;;;;;19.50;74.10;;;;;;5094914;28;20014;-69
2023/09/05 03:47:10;;;;;;;;;;;19.50;74.10;;;;;;5129391;27;19919;-69
2023/09/05 03:49:36;;;;;;;;;;;19.50;74.10;;;;;;5094829;28;19923;-69
2023/09/05 03:52:01;;;;;;;;;;;19.50;74.90;;;;;;5113188;28;19920;-69
2023/09/05 03:54:27;;;;;;;;;;;19.50;74.10;;;;;;5129269;27;20406;-69
2023/09/05 03:56:52;;;;;;;;;;;19.50;74.10;;;;;;5094831;28;19923;-69
2023/09/05 03:59:18;;;;;;;;;;;19.50;74.10;;;;;;5095003;28;19927;-69
2023/09/05 04:01:43;;;;;;;;;;;19.50;74.10;;;;;;5094515;28;20397;-69
2023/09/05 04:04:09;;;;;;;;;;;19.40;74.10;;;;;;5094987;28;19947;-70
2023/09/05 04:06:36;;;;;;;;;;;19.50;74.10;;;;;;5094755;28;19928;-69
2023/09/05 04:09:01;;;;;;;;;;;19.50;74.10;;;;;;5094605;28;19920;-69
2023/09/05 04:11:27;;;;;;;;;;;19.40;74.10;;;;;;5094967;28;20431;-69
2023/09/05 04:13:52;;;;;;;;;;;19.40;74.10;;;;;;5112819;28;19930;-69
2023/09/05 04:16:18;;;;;;;;;;;19.40;74.10;;;;;;5112928;28;19973;-69
2023/09/05 04:18:43;;;;;;;;;;;19.40;74.10;;;;;;5112764;28;19959;-69
2023/09/05 04:21:09;;;;;;;;;;;19.50;74.20;;;;;;5094775;28;20291;-69
2023/09/05 04:23:35;;;;;;;;;;;19.40;74.10;;;;;;5094565;28;19969;-69
2023/09/05 04:26:01;;;;;;;;;;;19.40;74.00;;;;;;5112381;28;20014;-69
2023/09/05 04:28:27;;;;;;;;;;;19.40;74.10;;;;;;5094495;28;19920;-69
2023/09/05 04:30:57;;;;;;;;;;;19.40;74.00;;;;;;5094390;28;19924;-69
2023/09/05 04:33:24;;;;;;;;;;;19.40;74.00;;;;;;5094767;28;19927;-69
2023/09/05 04:35:50;;;;;;;;;;;19.40;74.00;;;;;;5094311;28;19920;-69
2023/09/05 04:38:15;;;;;;;;;;;19.40;74.00;;;;;;5112796;28;19927;-69
2023/09/05 04:40:41;;;;;;;;;;;19.40;74.00;;;;;;5094329;28;20040;-69
2023/09/05 04:43:06;;;;;;;;;;;19.40;74.00;;;;;;5094685;28;19927;-69
2023/09/05 04:45:32;;;;;;;;;;;19.40;74.00;;;;;;5094157;28;19924;-72
2023/09/05 04:47:57;;;;;;;;;;;19.40;74.00;;;;;;5094618;28;19924;-69
2023/09/05 04:50:23;;;;;;;;;;;19.40;73.90;;;;;;5094176;28;19920;-69
2023/09/05 04:52:48;;;;;;;;;;;19.40;73.90;;;;;;5094595;28;19924;-69
2023/09/05 04:55:14;;;;;;;;;;;19.40;73.90;;;;;;5094225;28;20381;-69
2023/09/05 04:57:42;;;;;;;;;;;19.30;73.80;;;;;;5094493;28;19920;-69
2023/09/05 05:00:08;;;;;;;;;;;19.30;73.80;;;;;;5094184;28;19927;-69
2023/09/05 05:02:34;;;;;;;;;;;19.30;73.80;;;;;;5094509;28;20019;-69
2023/09/05 05:05:00;;;;;;;;;;;19.30;73.80;;;;;;5094102;28;19969;-69
2023/09/05 05:07:25;;;;;;;;;;;19.30;73.80;;;;;;5094344;28;19923;-69
2023/09/05 05:09:51;;;;;;;;;;;19.30;73.80;;;;;;5094443;28;19920;-69
2023/09/05 05:12:16;;;;;;;;;;;19.30;73.80;;;;;;5095318;28;20324;-69
2023/09/05 05:14:42;;;;;;;;;;;19.30;73.80;;;;;;5097975;28;19926;-69
2023/09/05 05:17:07;;;;;;;;;;;19.30;73.80;;;;;;5098190;28;19973;-69
2023/09/05 05:19:33;;;;;;;;;;;19.30;73.80;;;;;;5132045;27;19940;-69
2023/09/05 05:21:59;;;;;;;;;;;19.30;73.80;;;;;;5097685;28;19923;-69
2023/09/05 05:24:24;;;;;;;;;;;19.30;73.80;;;;;;5097775;28;19927;-69
2023/09/05 05:26:50;;;;;;;;;;;19.30;73.80;;;;;;5097300;28;19924;-69
2023/09/05 05:29:16;;;;;;;;;;;19.30;73.80;;;;;;5097956;28;20359;-69
2023/09/05 05:31:42;;;;;;;;;;;19.30;73.80;;;;;;5097523;28;20375;-69
2023/09/05 05:34:07;;;;;;;;;;;19.30;73.80;;;;;;5131171;27;19984;-69
2023/09/05 05:36:33;;;;;;;;;;;19.30;73.90;;;;;;5094031;28;19978;-69
2023/09/05 05:38:58;;;;;;;;;;;19.30;73.80;;;;;;5094561;28;19931;-69
2023/09/05 05:41:24;;;;;;;;;;;19.30;73.80;;;;;;5094800;28;19919;-68
2023/09/05 05:43:50;;;;;;;;;;;19.30;73.80;;;;;;5074862;28;20021;-67
2023/09/05 05:46:17;;;;;;;;;;;19.30;73.80;;;;;;5110615;28;20402;-68
2023/09/05 05:48:43;;;;;;;;;;;19.30;73.70;;;;;;5113710;28;19927;-68
2023/09/05 05:51:09;;;;;;;;;;;19.30;73.70;;;;;;5092430;28;20442;-67
2023/09/05 05:53:34;;;;;;;;;;;19.40;73.60;;;;;;5107904;28;19919;-68
2023/09/05 05:56:00;;;;;;;;;;;19.40;73.50;;;;;;5092039;28;19920;-68
2023/09/05 05:58:26;;;;;;;;;;;19.40;73.50;;;;;;5091541;28;19968;-72
2023/09/05 06:00:52;;;;;;;;;;;19.50;73.60;;;;;;5092575;28;20004;-65
2023/09/05 06:03:17;;;;;;;;;;;19.40;73.50;;;;;;5088742;28;20418;-67
2023/09/05 06:05:44;;;;;;;;;;;19.40;73.40;;;;;;5087622;28;20450;-66
2023/09/05 06:08:09;;;;;;;;;;;19.50;73.40;;;;;;5092301;28;19930;-66
2023/09/05 06:10:35;;;;;;;;;;;19.40;73.30;;;;;;5094819;28;19924;-73
2023/09/05 06:13:00;;;;;;;;;;;19.40;73.30;;;;;;5095019;27;20393;-66
2023/09/05 06:15:26;;;;;;;;;;;19.40;73.20;;;;;;5092223;28;19919;-67
2023/09/05 06:17:51;;;;;;;;;;;19.50;73.20;;;;;;5098906;27;19919;-66
2023/09/05 06:20:17;;;;;;;;;;;19.50;73.30;;;;;;5092628;27;20065;-67
2023/09/05 06:22:44;;;;;;;;;;;19.60;73.40;;;;;;5091247;28;20323;-72
2023/09/05 06:25:10;;;;;;;;;;;19.60;73.40;;;;;;5093880;27;19931;-73
2023/09/05 06:27:35;;;;;;;;;;;19.70;73.50;;;;;;5079091;28;19924;-66
2023/09/05 06:30:02;;;;;;;;;;;19.70;73.50;;;;;;5083400;27;19973;-67
2023/09/05 06:32:27;;;;;;;;;;;19.70;73.50;;;;;;5077526;28;20027;-73
2023/09/05 06:34:53;;;;;;;;;;;19.70;73.50;;;;;;5073684;27;19924;-66
2023/09/05 06:37:18;;;;;;;;;;;19.80;73.50;;;;;;5092104;27;19935;-66
2023/09/05 06:39:44;;;;;;;;;;;19.80;73.40;;;;;;5090898;27;19920;-72
2023/09/05 06:42:10;;;;;;;;;;;19.80;73.40;;;;;;5080281;27;20295;-66
2023/09/05 06:44:35;;;;;;;;;;;19.70;73.20;;;;;;5099299;27;19916;-66
2023/09/05 06:47:01;;;;;;;;;;;19.80;73.20;;;;;;5073682;27;19977;-66
2023/09/05 06:49:26;;;;;;;;;;;19.80;73.10;;;;;;5074694;28;19930;-71
2023/09/05 06:51:52;;;;;;;;;;;19.80;73.00;;;;;;5079043;28;20027;-75
2023/09/05 06:54:17;;;;;;;;;;;19.80;73.10;;;;;;5079665;28;20039;-66
2023/09/05 06:56:43;;;;;;;;;;;19.90;73.20;;;;;;5082021;27;20336;-67
2023/09/05 06:59:16;;;;;;;;;;;19.90;73.30;;;;;;5080086;27;19981;-66
2023/09/05 07:01:42;;;;;;;;;;;20.00;73.40;;;;;;5094356;27;19924;-74
2023/09/05 07:04:08;;;;;;;;;;;20.00;73.50;;;;;;5104992;27;19950;-71
2023/09/05 07:06:33;;;;;;;;;;;20.00;73.60;;;;;;5079539;27;19924;-67
2023/09/05 07:08:59;;;;;;;;;;;20.00;73.70;;;;;;5077899;28;20583;-67
2023/09/05 07:11:24;;;;;;;;;;;20.00;73.60;;;;;;5080426;27;19927;-70
2023/09/05 07:13:50;;;;;;;;;;;20.10;73.70;;;;;;5084737;27;20440;-67
2023/09/05 07:16:15;;;;;;;;;;;20.10;73.70;;;;;;5077227;28;19934;-76
2023/09/05 07:18:41;;;;;;;;;;;20.10;73.60;;;;;;5095864;27;19926;-70
2023/09/05 07:21:06;;;;;;;;;;;20.10;73.60;;;;;;5102549;27;19923;-70
2023/09/05 07:23:32;;;;;;;;;;;20.10;73.60;;;;;;5105585;27;20016;-75
2023/09/05 07:26:02;;;;;;;;;;;20.10;73.60;;;;;;5076658;27;19990;-67
2023/09/05 07:28:28;;;;;;;;;;;20.10;73.60;;;;;;5103920;27;19937;-68
2023/09/05 07:30:53;;;;;;;;;;;20.10;73.60;;;;;;5075931;27;19920;-67
2023/09/05 07:33:19;;;;;;;;;;;20.10;73.60;;;;;;5095642;27;19920;-73
2023/09/05 07:35:44;;;;;;;;;;;20.10;73.70;;;;;;5076809;28;20030;-68
2023/09/05 07:38:12;;;;;;;;;;;20.20;73.70;;;;;;5076207;28;19919;-68
2023/09/05 07:40:37;;;;;;;;;;;20.10;73.70;;;;;;5094660;27;19919;-70
2023/09/05 07:43:03;;;;;;;;;;;20.10;73.80;;;;;;5100301;27;19919;-73
2023/09/05 07:45:29;;;;;;;;;;;20.20;74.00;;;;;;5095055;27;20019;-68
2023/09/05 07:47:54;;;;;;;;;;;20.20;74.00;;;;;;5076459;27;19927;-76
2023/09/05 07:50:20;;;;;;;;;;;20.20;74.10;;;;;;5081166;28;19931;-75
2023/09/05 07:52:45;;;;;;;;;;;20.20;74.10;;;;;;5076811;28;19931;-76
2023/09/05 07:55:11;;;;;;;;;;;20.20;74.20;;;;;;5098806;27;19924;-75
2023/09/05 07:57:36;;;;;;;;;;;20.30;74.30;;;;;;5079300;28;20301;-78
2023/09/05 08:00:03;;;;;;;;;;;20.30;74.30;;;;;;5081627;28;19945;-69
2023/09/05 08:02:28;;;;;;;;;;;20.30;74.30;;;;;;5080886;28;19923;-69
2023/09/05 08:04:54;;;;;;;;;;;20.30;74.40;;;;;;5078377;28;20264;-68
2023/09/05 08:07:19;;;;;;;;;;;20.30;74.40;;;;;;5076029;27;20432;-68
2023/09/05 08:09:47;;;;;;;;;;;20.30;74.40;;;;;;5090999;28;19928;-74
2023/09/05 08:12:13;;;;;;;;;;;20.30;74.50;;;;;;5093736;28;19927;-68
2023/09/05 08:14:38;;;;;;;;;;;20.30;74.50;;;;;;5083286;28;19928;-74
2023/09/05 08:17:04;;;;;;;;;;;20.30;74.60;;;;;;5075582;28;19924;-75
2023/09/05 08:19:29;;;;;;;;;;;20.30;74.70;;;;;;5078391;28;19924;-68
2023/09/05 08:21:55;;;;;;;;;;;20.30;74.60;;;;;;5099160;28;19930;-68
2023/09/05 08:24:20;;;;;;;;;;;20.40;74.70;;;;;;5075564;28;19927;-68
2023/09/05 08:26:45;;;;;;;;;;;20.30;74.70;;;;;;5073282;28;19928;-68
2023/09/05 08:29:13;;;;;;;;;;;20.40;74.70;;;;;;5081361;28;19935;-69
2023/09/05 08:31:39;;;;;;;;;;;20.40;74.80;;;;;;5096912;28;20013;-73
2023/09/05 08:34:04;;;;;;;;;;;20.40;74.90;;;;;;5098762;28;20505;-74
2023/09/05 08:36:31;;;;;;;;;;;20.40;74.80;;;;;;5077979;28;19927;-69
2023/09/05 08:38:57;;;;;;;;;;;20.40;74.80;;;;;;5075089;28;19924;-69
2023/09/05 08:41:22;;;;;;;;;;;20.40;74.80;;;;;;5083046;28;19920;-78
2023/09/05 08:43:48;;;;;;;;;;;20.40;74.70;;;;;;5080005;28;19924;-70
2023/09/05 08:46:14;;;;;;;;;;;20.40;74.80;;;;;;5079026;28;19936;-69
2023/09/05 08:48:39;;;;;;;;;;;20.30;74.80;;;;;;5080981;28;20016;-70
2023/09/05 08:51:07;;;;;;;;;;;20.30;74.80;;;;;;5061702;27;20253;-70
2023/09/05 08:53:36;;;;;;;;;;;20.30;74.90;;;;;;5079513;27;19923;-76
2023/09/05 08:56:03;;;;;;;;;;;20.30;75.10;;;;;;5080318;27;19928;-75
2023/09/05 08:58:30;;;;;;;;;;;20.40;75.30;;;;;;5077940;27;19920;-76
2023/09/05 09:00:55;;;;;;;;;;;20.40;75.40;;;;;;5085174;28;19928;-71
2023/09/05 09:03:21;;;;;;;;;;;20.40;75.40;;;;;;5079192;28;19973;-68
2023/09/05 09:05:47;;;;;;;;;;;20.50;75.50;;;;;;5079831;27;19981;-76
2023/09/05 09:08:13;;;;;;;;;;;20.50;75.50;;;;;;5107637;27;20433;-68
2023/09/05 09:10:38;;;;;;;;;;;20.50;75.60;;;;;;5105306;27;19928;-75
2023/09/05 09:13:19;;;;;;;;;;;20.50;75.60;;;;;;5105882;27;19960;-75
2023/09/05 09:15:46;;;;;;;;;;;20.50;75.60;;;;;;5081826;28;20015;-69
2023/09/05 09:18:12;;;;;;;;;;;20.60;75.70;;;;;;5074036;28;20374;-72
2023/09/05 09:20:42;;;;;;;;;;;20.60;75.70;;;;;;5077908;27;19923;-68
2023/09/05 09:23:07;;;;;;;;;;;20.60;75.80;;;;;;5095281;27;20334;-68
2023/09/05 09:25:33;;;;;;;;;;;20.60;75.80;;;;;;5078102;27;19932;-75
2023/09/05 09:27:58;;;;;;;;;;;20.60;75.80;;;;;;5074420;28;19924;-71
2023/09/05 09:30:27;;;;;;;;;;;20.70;75.90;;;;;;5099738;27;19920;-69
2023/09/05 09:32:53;;;;;;;;;;;20.60;76.00;;;;;;5098230;27;19971;-70
2023/09/05 09:35:19;;;;;;;;;;;20.70;76.40;;;;;;5092859;28;19951;-68
2023/09/05 09:37:46;;;;;;;;;;;20.70;76.60;;;;;;5077561;27;19943;-68
2023/09/05 09:40:12;;;;;;;;;;;20.80;76.90;;;;;;5103046;27;19927;-78
2023/09/05 09:42:38;;;;;;;;;;;20.90;77.00;;;;;;5079704;27;19927;-67
2023/09/05 09:45:05;;;;;;;;;;;20.90;76.90;;;;;;5095906;27;19924;-73
2023/09/05 09:47:31;;;;;;;;;;;21.00;77.00;;;;;;5079446;27;20172;-69
2023/09/05 09:49:58;;;;;;;;;;;21.00;77.00;;;;;;5078805;28;19923;-76
2023/09/05 09:52:24;;;;;;;;;;;21.10;77.00;;;;;;5082073;28;20011;-70
2023/09/05 09:54:53;;;;;;;;;;;21.10;77.00;;;;;;5099541;27;20419;-70
2023/09/05 09:57:22;;;;;;;;;;;21.20;77.00;;;;;;5106271;27;20483;-69
2023/09/05 09:59:49;;;;;;;;;;;21.30;77.20;;;;;;5074984;28;19920;-69
2023/09/05 10:02:16;;;;;;;;;;;21.20;77.20;;;;;;5106540;27;19924;-71
2023/09/05 10:04:43;;;;;;;;;;;21.20;77.00;;;;;;5076587;28;19976;-68
2023/09/05 10:07:11;;;;;;;;;;;21.30;77.10;;;;;;5079662;28;19932;-73
2023/09/05 10:09:37;;;;;;;;;;;21.30;76.80;;;;;;5095549;27;19924;-69
2023/09/05 10:12:04;;;;;;;;;;;21.30;76.70;;;;;;5079901;28;20758;-69
2023/09/05 10:14:31;;;;;;;;;;;21.30;76.60;;;;;;5077108;28;20531;-69
2023/09/05 10:16:58;;;;;;;;;;;21.40;76.80;;;;;;5097969;27;19927;-68
2023/09/05 10:19:25;;;;;;;;;;;21.50;77.00;;;;;;5077209;28;19923;-70
2023/09/05 10:21:52;;;;;;;;;;;21.50;76.80;;;;;;5076501;27;19935;-70
2023/09/05 10:24:18;;;;;;;;;;;21.60;76.60;;;;;;5096597;27;19928;-71
2023/09/05 10:26:44;;;;;;;;;;;21.60;76.40;;;;;;5099219;27;19930;-70
2023/09/05 10:29:29;;;;;;;;;;;21.60;76.40;;;;;;5095596;27;19953;-70
2023/09/05 10:31:56;;;;;;;;;;;21.60;76.10;;;;;;5078065;28;19935;-71
2023/09/05 10:34:29;;;;;;;;;;;21.60;76.10;;;;;;5103269;27;20011;-71
2023/09/05 10:36:58;;;;;;;;;;;21.60;76.10;;;;;;5079271;28;19926;-72
2023/09/05 10:39:25;;;;;;;;;;;21.70;75.90;;;;;;5095566;27;19930;-71
2023/09/05 10:41:51;;;;;;;;;;;21.70;76.00;;;;;;5098062;27;21251;-70
2023/09/05 10:44:16;;;;;;;;;;;21.70;76.20;;;;;;5079678;27;19945;-67
2023/09/05 10:46:42;;;;;;;;;;;21.70;76.60;;;;;;5095671;27;20875;-66
2023/09/05 10:49:10;;;;;;;;;;;21.80;76.90;;;;;;5078561;27;19923;-67
2023/09/05 10:51:35;;;;;;;;;;;21.80;77.00;;;;;;5100474;27;19923;-65
2023/09/05 10:54:20;;;;;;;;;;;21.90;76.70;;;;;;5098537;27;19931;-67
2023/09/05 10:56:46;;;;;;;;;;;21.90;76.80;;;;;;5081130;27;20015;-67
2023/09/05 10:59:27;;;;;;;;;;;21.90;76.80;;;;;;5082065;27;19930;-67
2023/09/05 11:01:56;;;;;;;;;;;21.90;77.00;;;;;;5076394;27;20416;-75
2023/09/05 11:04:26;;;;;;;;;;;21.80;77.10;;;;;;5081233;28;20005;-68
2023/09/05 11:06:54;;;;;;;;;;;21.80;77.20;;;;;;5109336;27;20565;-68
2023/09/05 11:09:20;;;;;;;;;;;21.80;77.30;;;;;;5097073;27;19924;-67
2023/09/05 11:11:45;;;;;;;;;;;21.80;77.30;;;;;;5100969;27;20113;-67
2023/09/05 11:14:11;;;;;;;;;;;21.80;77.50;;;;;;5077820;28;19920;-77
2023/09/05 11:16:46;;;;;;;;;;;21.80;77.60;;;;;;5081201;28;20007;-68
2023/09/05 11:19:28;;;;;;;;;;;21.80;77.40;;;;;;5098844;27;19946;-68
2023/09/05 11:22:10;;;;;;;;;;;21.90;76.90;;;;;;5080234;28;20264;-67
2023/09/05 11:24:37;;;;;;;;;;;21.90;76.30;;;;;;5095235;27;19924;-66
2023/09/05 11:27:03;;;;;;;;;;;22.00;75.90;;;;;;5072034;28;19932;-66
2023/09/05 11:29:29;;;;;;;;;;;22.10;75.50;;;;;;5075917;28;19928;-66
2023/09/05 11:31:56;;;;;;;;;;;22.10;75.10;;;;;;5079434;28;19924;-67
2023/09/05 11:34:22;;;;;;;;;;;22.10;74.80;;;;;;5097992;27;19981;-70
2023/09/05 11:36:47;;;;;;;;;;;22.10;74.50;;;;;;5071630;28;19928;-69
2023/09/05 11:39:16;;;;;;;;;;;22.10;74.60;;;;;;5078042;28;20023;-68
2023/09/05 11:41:42;;;;;;;;;;;22.10;74.60;;;;;;5071016;28;19920;-70
2023/09/05 11:44:07;;;;;;;;;;;22.20;74.90;;;;;;5073160;28;20517;-69
2023/09/05 11:46:40;;;;;;;;;;;22.20;74.60;;;;;;5070901;28;19932;-68
2023/09/05 11:49:05;;;;;;;;;;;22.20;74.70;;;;;;5070783;28;20025;-68
2023/09/05 11:51:31;;;;;;;;;;;22.20;74.80;;;;;;5071876;28;19924;-69
2023/09/05 11:53:57;;;;;;;;;;;22.30;75.00;;;;;;5068188;28;19927;-68
2023/09/05 11:56:22;;;;;;;;;;;22.30;74.90;;;;;;5074489;28;20280;-67
2023/09/05 11:58:48;;;;;;;;;;;22.30;74.90;;;;;;5102650;27;20325;-68
2023/09/05 12:01:25;;;;;;;;;;;22.30;74.90;;;;;;5068410;28;20003;-68
2023/09/05 12:03:51;;;;;;;;;;;22.30;75.10;;;;;;5064824;28;19921;-70
2023/09/05 12:06:17;;;;;;;;;;;22.30;75.20;;;;;;5098050;27;19939;-71
2023/09/05 12:08:42;;;;;;;;;;;22.30;75.20;;;;;;5102172;27;19920;-71
2023/09/05 12:11:08;;;;;;;;;;;22.30;75.00;;;;;;5075444;28;19946;-69
2023/09/05 12:13:37;;;;;;;;;;;22.30;74.70;;;;;;5072098;28;19924;-67
2023/09/05 12:16:03;;;;;;;;;;;22.30;74.80;;;;;;5063706;28;19920;-68
2023/09/05 12:18:28;;;;;;;;;;;22.30;75.10;;;;;;5064982;28;19928;-68
2023/09/05 12:20:55;;;;;;;;;;;22.30;75.00;;;;;;5068653;28;19935;-68
2023/09/05 12:23:22;;;;;;;;;;;22.30;75.10;;;;;;5075340;28;19924;-69
2023/09/05 12:25:48;;;;;;;;;;;22.20;75.30;;;;;;5081090;28;19931;-68
2023/09/05 12:28:20;;;;;;;;;;;22.20;75.50;;;;;;5073755;28;19928;-67
2023/09/05 12:30:47;;;;;;;;;;;22.20;75.70;;;;;;5077951;28;20030;-69
2023/09/05 12:33:13;;;;;;;;;;;22.20;75.90;;;;;;5087216;28;19950;-67
2023/09/05 12:35:38;;;;;;;;;;;22.10;75.90;;;;;;5067985;28;19928;-67
2023/09/05 12:38:05;;;;;;;;;;;22.10;76.10;;;;;;5073666;28;19928;-68
2023/09/05 12:40:33;;;;;;;;;;;22.10;76.10;;;;;;5072225;28;19926;-68
2023/09/05 12:43:00;;;;;;;;;;;22.10;76.30;;;;;;5079059;28;19928;-66
2023/09/05 12:45:26;;;;;;;;;;;22.10;76.40;;;;;;5081208;28;20371;-66
2023/09/05 12:47:51;;;;;;;;;;;22.10;76.50;;;;;;5076782;28;19927;-66
2023/09/05 12:50:17;;;;;;;;;;;22.20;76.70;;;;;;5075501;28;20447;-67
2023/09/05 12:52:44;;;;;;;;;;;22.10;76.80;;;;;;5078299;28;19963;-72
2023/09/05 12:55:10;;;;;;;;;;;22.20;76.70;;;;;;5079767;28;19927;-70
2023/09/05 12:57:38;;;;;;;;;;;22.30;76.70;;;;;;5074737;28;19924;-78
2023/09/05 13:00:04;;;;;;;;;;;22.30;76.50;;;;;;5087381;28;20018;-69
2023/09/05 13:02:29;;;;;;;;;;;22.50;77.10;;;;;;5080987;28;20003;-71
2023/09/05 13:04:55;;;;;;;;;;;22.50;76.20;;;;;;5102786;28;20076;-70
2023/09/05 13:07:22;;;;;;;;;;;22.70;76.10;;;;;;5102519;28;19931;-74
2023/09/05 13:09:48;;;;;;;;;;;22.70;75.90;;;;;;5084155;28;19998;-68
2023/09/05 13:12:15;;;;;;;;;;;22.70;75.90;;;;;;5097631;28;20052;-68
2023/09/05 13:14:45;;;;;;;;;;;22.80;75.90;;;;;;5075485;28;19931;-68
2023/09/05 13:17:11;;;;;;;;;;;22.80;75.70;;;;;;5088648;28;19920;-70
2023/09/05 13:19:37;;;;;;;;;;;22.80;75.40;;;;;;5080808;28;20367;-70
2023/09/05 13:22:03;;;;;;;;;;;22.80;75.20;;;;;;5089838;28;19935;-68
2023/09/05 13:24:29;;;;;;;;;;;22.80;75.60;;;;;;5084449;28;19963;-68
2023/09/05 13:26:56;;;;;;;;;;;22.70;75.50;;;;;;5078865;28;19924;-68
2023/09/05 13:29:22;;;;;;;;;;;22.70;75.70;;;;;;5089235;28;19919;-68
2023/09/05 13:31:47;;;;;;;;;;;22.70;75.80;;;;;;5104236;28;19985;-74
2023/09/05 13:34:13;;;;;;;;;;;22.70;75.80;;;;;;5099666;27;19920;-68
2023/09/05 13:36:38;;;;;;;;;;;22.70;75.90;;;;;;5087807;27;20006;-68
2023/09/05 13:39:04;;;;;;;;;;;22.70;76.00;;;;;;5090442;27;19926;-68
2023/09/05 13:41:29;;;;;;;;;;;22.70;76.10;;;;;;5088194;27;19927;-73
2023/09/05 13:43:55;;;;;;;;;;;22.70;76.00;;;;;;5094914;27;19972;-68
2023/09/05 13:46:20;;;;;;;;;;;22.70;76.10;;;;;;5091811;27;20374;-70
2023/09/05 13:48:48;;;;;;;;;;;22.70;75.80;;;;;;5085898;27;19919;-75
2023/09/05 13:51:19;;;;;;;;;;;22.80;76.00;;;;;;5105264;27;19984;-69
2023/09/05 13:53:44;;;;;;;;;;;22.80;75.90;;;;;;5095925;27;19928;-68
2023/09/05 13:56:10;;;;;;;;;;;22.80;76.10;;;;;;5089241;27;19927;-73
2023/09/05 13:58:36;;;;;;;;;;;22.80;75.80;;;;;;5089106;28;19980;-73
2023/09/05 14:01:01;;;;;;;;;;;22.80;75.90;;;;;;5095498;27;19928;-72
2023/09/05 14:03:27;;;;;;;;;;;22.80;76.10;;;;;;5093163;27;19923;-70
2023/09/05 14:05:52;;;;;;;;;;;22.90;75.80;;;;;;5109094;27;19935;-70
2023/09/05 14:08:18;;;;;;;;;;;22.90;75.60;;;;;;5092520;27;20445;-70
2023/09/05 14:10:46;;;;;;;;;;;22.80;75.20;;;;;;5094087;28;20015;-70
2023/09/05 14:13:12;;;;;;;;;;;22.70;75.20;;;;;;5111869;27;20002;-71